createdAt,value
2022-10-20T00:01:12.608Z,2.60
2022-10-20T00:04:14.491Z,5.77
2022-10-20T00:07:16.142Z,3.43
2022-10-20T00:10:17.892Z,9.63
2022-10-20T00:13:19.540Z,2.77
2022-10-20T00:16:22.331Z,8.20
2022-10-20T00:19:24.153Z,5.83
2022-10-20T00:22:25.802Z,4.87
2022-10-20T00:25:27.472Z,3.23
2022-10-20T00:28:29.369Z,3.77
2022-10-20T00:31:31.456Z,8.10
2022-10-20T00:34:33.532Z,3.57
2022-10-20T00:37:35.203Z,2.53
2022-10-20T00:40:36.867Z,5.23
2022-10-20T00:43:45.798Z,3.30
2022-10-20T00:46:47.622Z,5.97
2022-10-20T00:49:50.327Z,5.50
2022-10-20T00:52:53.181Z,6.90
2022-10-20T00:55:56.668Z,7.20
2022-10-20T00:58:59.972Z,2.37
2022-10-20T01:02:02.563Z,3.70
2022-10-20T01:05:05.151Z,5.87
2022-10-20T01:08:06.795Z,4.13
2022-10-20T01:11:31.490Z,4.63
2022-10-20T01:14:56.934Z,3.27
2022-10-20T01:18:11.313Z,11.70
2022-10-20T01:21:27.678Z,5.07
2022-10-20T01:24:44.546Z,6.03
2022-10-20T01:27:51.360Z,2.70
2022-10-20T01:31:11.542Z,6.13
2022-10-20T01:34:28.041Z,2.93
2022-10-20T01:37:48.450Z,4.70
2022-10-20T01:41:14.040Z,4.37
2022-10-20T01:44:18.496Z,5.63
2022-10-20T01:47:22.299Z,3.27
2022-10-20T01:50:24.495Z,4.77
2022-10-20T01:53:26.348Z,4.40
2022-10-20T01:56:47.153Z,4.13
2022-10-20T02:00:16.362Z,4.10
2022-10-20T02:03:30.820Z,8.00
2022-10-20T02:06:45.603Z,3.23
2022-10-20T02:13:07.079Z,4.17
2022-10-20T02:16:14.856Z,8.17
2022-10-20T02:19:19.824Z,8.23
2022-10-20T02:22:23.209Z,4.20
2022-10-20T02:25:25.869Z,3.57
2022-10-20T02:28:28.712Z,5.13
2022-10-20T02:31:30.981Z,3.83
2022-10-20T02:34:32.817Z,8.30
2022-10-20T02:37:34.695Z,5.67
2022-10-20T02:40:36.618Z,7.27
2022-10-20T02:43:38.573Z,5.20
2022-10-20T02:46:40.244Z,4.17
2022-10-20T02:49:41.896Z,7.13
2022-10-20T02:52:43.552Z,4.30
2022-10-20T02:55:45.524Z,7.23
2022-10-20T02:58:47.188Z,5.53
2022-10-20T03:01:48.978Z,5.40
2022-10-20T03:04:50.676Z,7.77
2022-10-20T03:07:52.702Z,7.70
2022-10-20T03:10:54.424Z,6.00
2022-10-20T03:13:56.075Z,3.83
2022-10-20T03:16:57.749Z,7.73
2022-10-20T03:19:59.455Z,5.80
2022-10-20T03:23:01.111Z,7.93
2022-10-20T03:26:07.885Z,10.43
2022-10-20T03:29:09.567Z,5.07
2022-10-20T03:32:11.267Z,4.93
2022-10-20T03:35:12.946Z,6.87
2022-10-20T03:38:14.616Z,7.03
2022-10-20T03:41:16.323Z,8.67
2022-10-20T03:44:17.965Z,4.23
2022-10-20T03:47:19.682Z,7.47
2022-10-20T03:50:21.359Z,9.07
2022-10-20T03:53:23.208Z,11.00
2022-10-20T03:56:24.896Z,5.03
2022-10-20T03:59:29.534Z,11.10
2022-10-20T04:02:38.767Z,4.77
2022-10-20T04:05:41.428Z,6.40
2022-10-20T04:08:43.202Z,9.07
2022-10-20T04:11:44.911Z,7.33
2022-10-20T04:14:47.552Z,7.27
2022-10-20T04:17:49.217Z,9.43
2022-10-20T04:20:50.871Z,6.80
2022-10-20T04:23:52.845Z,8.53
2022-10-20T04:26:54.617Z,6.27
2022-10-20T04:29:56.274Z,5.60
2022-10-20T04:32:57.984Z,7.00
2022-10-20T04:36:05.508Z,7.17
2022-10-20T04:39:08.073Z,7.97
2022-10-20T04:42:09.728Z,5.70
2022-10-20T04:45:11.425Z,7.03
2022-10-20T04:48:13.101Z,11.30
2022-10-20T04:51:16.196Z,8.63
2022-10-20T04:54:17.925Z,7.70
2022-10-20T04:57:19.629Z,8.50
2022-10-20T05:00:21.309Z,12.10
2022-10-20T05:03:22.969Z,12.97
2022-10-20T05:06:27.148Z,8.03
2022-10-20T05:09:29.089Z,9.97
2022-10-20T05:12:30.901Z,7.50
2022-10-20T05:15:32.573Z,5.27
2022-10-20T05:18:35.013Z,11.57
2022-10-20T05:21:37.137Z,11.30
2022-10-20T05:24:38.856Z,8.43
2022-10-20T05:27:40.541Z,7.17
2022-10-20T05:33:51.220Z,11.60
2022-10-20T05:36:54.240Z,7.27
2022-10-20T05:39:55.937Z,10.70
2022-10-20T05:42:57.727Z,7.40
2022-10-20T05:45:59.386Z,7.63
2022-10-20T05:49:02.871Z,6.60
2022-10-20T05:52:04.579Z,7.87
2022-10-20T05:55:06.844Z,6.40
2022-10-20T05:58:08.490Z,7.57
2022-10-20T06:01:21.390Z,9.27
2022-10-20T06:04:23.910Z,10.67
2022-10-20T06:07:25.725Z,9.67
2022-10-20T06:10:27.465Z,9.87
2022-10-20T06:13:30.359Z,7.80
2022-10-20T06:16:32.762Z,9.57
2022-10-20T06:19:34.405Z,8.13
2022-10-20T06:22:36.421Z,8.03
2022-10-20T06:25:38.209Z,9.43
2022-10-20T06:28:41.422Z,12.60
2022-10-20T06:31:51.140Z,6.53
2022-10-20T06:34:54.069Z,6.50
2022-10-20T06:37:55.707Z,7.87
2022-10-20T06:41:00.404Z,11.23
2022-10-20T06:44:02.315Z,8.53
2022-10-20T06:47:07.407Z,11.03
2022-10-20T06:50:09.418Z,9.77
2022-10-20T06:53:12.288Z,14.00
2022-10-20T06:56:19.050Z,8.83
2022-10-20T06:59:20.691Z,10.00
2022-10-20T07:02:22.341Z,10.77
2022-10-20T07:05:24.029Z,9.43
2022-10-20T07:08:29.438Z,9.83
2022-10-20T07:11:32.086Z,9.73
2022-10-20T07:14:37.171Z,7.57
2022-10-20T07:17:38.817Z,8.63
2022-10-20T07:20:40.457Z,10.53
2022-10-20T07:23:42.729Z,7.77
2022-10-20T07:26:44.498Z,10.57
2022-10-20T07:29:46.143Z,7.00
2022-10-20T07:32:47.785Z,6.73
2022-10-20T07:35:50.037Z,8.03
2022-10-20T07:38:53.386Z,10.17
2022-10-20T07:41:55.243Z,8.73
2022-10-20T07:44:56.963Z,9.40
2022-10-20T07:47:59.361Z,7.57
2022-10-20T07:51:28.885Z,9.73
2022-10-20T07:54:31.641Z,8.73
2022-10-20T07:57:33.311Z,8.27
2022-10-20T08:00:35.138Z,8.67
2022-10-20T08:03:37.181Z,11.97
2022-10-20T08:06:39.549Z,7.30
2022-10-20T08:09:41.871Z,10.07
2022-10-20T08:12:43.597Z,7.20
2022-10-20T08:15:49.168Z,12.93
2022-10-20T08:19:08.475Z,8.10
2022-10-20T08:22:10.638Z,9.27
2022-10-20T08:25:15.016Z,13.97
2022-10-20T08:28:16.669Z,8.60
2022-10-20T08:31:18.931Z,10.63
2022-10-20T08:34:20.595Z,7.77
2022-10-20T08:37:22.378Z,10.07
2022-10-20T08:40:27.727Z,7.13
2022-10-20T08:43:31.756Z,8.30
2022-10-20T08:46:37.047Z,8.27
2022-10-20T08:49:38.743Z,10.07
2022-10-20T08:52:41.891Z,8.47
2022-10-20T08:55:45.034Z,7.73
2022-10-20T08:58:46.849Z,9.03
2022-10-20T09:01:48.802Z,10.67
2022-10-20T09:04:55.387Z,18.93
2022-10-20T09:07:57.742Z,8.17
2022-10-20T09:10:59.672Z,8.17
2022-10-20T09:14:01.372Z,6.47
2022-10-20T09:17:05.289Z,9.17
2022-10-20T09:20:22.886Z,7.67
2022-10-20T09:23:42.428Z,8.23
2022-10-20T09:27:02.174Z,9.93
2022-10-20T09:30:22.421Z,7.47
2022-10-20T09:33:34.950Z,8.43
2022-10-20T09:36:37.080Z,7.93
2022-10-20T09:39:56.203Z,6.73
2022-10-20T09:43:11.422Z,6.57
2022-10-20T09:46:20.353Z,8.67
2022-10-20T09:49:35.243Z,7.37
2022-10-20T09:52:47.464Z,8.63
2022-10-20T09:55:50.848Z,8.97
2022-10-20T09:58:52.891Z,8.83
2022-10-20T10:01:58.912Z,10.70
2022-10-20T10:05:19.850Z,5.60
2022-10-20T10:08:23.939Z,8.83
2022-10-20T10:11:36.497Z,8.97
2022-10-20T10:14:48.141Z,6.73
2022-10-20T10:17:50.930Z,7.83
2022-10-20T10:21:02.126Z,8.10
2022-10-20T10:24:04.770Z,8.10
2022-10-20T10:27:19.755Z,11.10
2022-10-20T10:30:27.283Z,10.87
2022-10-20T10:33:29.571Z,9.37
2022-10-20T10:36:34.491Z,8.30
2022-10-20T10:39:36.371Z,9.70
2022-10-20T10:42:52.976Z,7.90
2022-10-20T10:46:07.188Z,6.47
2022-10-20T10:49:43.436Z,9.83
2022-10-20T10:53:07.317Z,10.77
2022-10-20T10:56:32.693Z,7.40
2022-10-20T10:59:42.465Z,10.90
2022-10-20T11:03:22.773Z,9.70
2022-10-20T11:06:47.419Z,7.23
2022-10-20T11:09:59.921Z,9.43
2022-10-20T11:13:13.445Z,9.60
2022-10-20T11:16:35.465Z,7.60
2022-10-20T11:20:12.734Z,7.40
2022-10-20T11:26:40.400Z,9.63
2022-10-20T11:29:50.976Z,10.03
2022-10-20T11:32:56.519Z,14.03
2022-10-20T11:36:06.667Z,10.63
2022-10-20T11:39:17.953Z,9.53
2022-10-20T11:42:37.626Z,17.53
2022-10-20T11:45:45.097Z,8.67
2022-10-20T11:48:52.654Z,11.13
2022-10-20T11:52:21.441Z,11.57
2022-10-20T11:55:37.391Z,8.77
2022-10-20T11:58:57.637Z,13.47
2022-10-20T12:02:19.088Z,12.27
2022-10-20T12:05:42.631Z,9.60
2022-10-20T12:09:06.019Z,11.87
2022-10-20T12:12:21.396Z,17.70
2022-10-20T12:15:25.614Z,13.67
2022-10-20T12:18:32.935Z,15.20
2022-10-20T12:21:54.261Z,13.77
2022-10-20T12:24:55.881Z,10.90
2022-10-20T12:28:19.684Z,16.93
2022-10-20T12:31:21.389Z,9.83
2022-10-20T12:34:24.260Z,11.93
2022-10-20T12:37:33.606Z,11.33
2022-10-20T12:40:47.429Z,16.30
2022-10-20T12:43:52.087Z,12.33
2022-10-20T12:46:57.979Z,19.63
2022-10-20T12:50:08.340Z,20.53
2022-10-20T12:53:26.670Z,20.27
2022-10-20T12:56:35.152Z,14.10
2022-10-20T12:59:38.966Z,17.93
2022-10-20T13:02:45.796Z,15.93
2022-10-20T13:05:48.525Z,17.43
2022-10-20T13:09:05.972Z,16.50
2022-10-20T13:12:28.895Z,15.90
2022-10-20T13:15:56.912Z,14.03
2022-10-20T13:18:59.647Z,21.93
2022-10-20T13:22:25.464Z,11.37
2022-10-20T13:25:33.669Z,14.47
2022-10-20T13:28:35.336Z,13.33
2022-10-20T13:32:11.325Z,16.93
2022-10-20T13:35:35.872Z,15.00
2022-10-20T13:38:51.619Z,16.43
2022-10-20T13:41:58.054Z,12.43
2022-10-20T13:45:44.900Z,15.30
2022-10-20T13:49:25.367Z,12.33
2022-10-20T13:52:30.904Z,24.43
2022-10-20T13:56:08.070Z,19.23
2022-10-20T13:59:18.540Z,20.67
2022-10-20T14:02:26.925Z,13.70
2022-10-20T14:05:35.788Z,16.37
2022-10-20T14:08:43.998Z,15.30
2022-10-20T14:11:49.761Z,18.77
2022-10-20T14:14:51.730Z,18.73
2022-10-20T14:18:05.301Z,15.97
2022-10-20T14:21:18.514Z,21.80
2022-10-20T14:24:27.160Z,14.67
2022-10-20T14:27:31.132Z,16.87
2022-10-20T14:30:34.546Z,14.60
2022-10-20T14:33:43.595Z,15.77
2022-10-20T14:36:46.186Z,15.67
2022-10-20T14:39:50.601Z,15.20
2022-10-20T14:42:52.575Z,14.00
2022-10-20T14:45:59.949Z,17.07
2022-10-20T14:49:02.197Z,13.80
2022-10-20T14:52:21.928Z,13.60
2022-10-20T14:55:34.668Z,18.27
2022-10-20T14:58:57.645Z,15.47
2022-10-20T15:02:14.075Z,13.63
2022-10-20T15:05:31.006Z,17.30
2022-10-20T15:08:32.726Z,14.10
2022-10-20T15:11:38.664Z,10.33
2022-10-20T15:14:43.827Z,14.63
2022-10-20T15:17:47.770Z,16.93
2022-10-20T15:20:54.040Z,14.33
2022-10-20T15:23:55.668Z,14.67
2022-10-20T15:26:57.963Z,12.77
2022-10-20T15:29:59.601Z,14.43
2022-10-20T15:33:01.299Z,12.23
2022-10-20T15:36:03.164Z,16.60
2022-10-20T15:39:05.531Z,17.83
2022-10-20T15:42:11.248Z,14.80
2022-10-20T15:45:21.686Z,14.13
2022-10-20T15:48:26.898Z,16.47
2022-10-20T15:51:31.565Z,15.20
2022-10-20T15:54:33.183Z,13.33
2022-10-20T15:57:35.127Z,15.20
2022-10-20T16:00:37.583Z,14.27
2022-10-20T16:03:41.219Z,16.83
2022-10-20T16:06:43.587Z,19.00
2022-10-20T16:09:45.203Z,18.43
2022-10-20T16:12:47.078Z,17.50
2022-10-20T16:15:48.779Z,19.60
2022-10-20T16:18:50.457Z,19.63
2022-10-20T16:21:52.123Z,15.30
2022-10-20T16:24:53.956Z,14.73
2022-10-20T16:27:55.625Z,15.97
2022-10-20T16:31:12.199Z,15.37
2022-10-20T16:34:13.927Z,15.53
2022-10-20T16:37:15.789Z,23.60
2022-10-20T16:40:17.503Z,14.47
2022-10-20T16:43:19.164Z,11.67
2022-10-20T16:46:21.086Z,16.87
2022-10-20T16:49:22.856Z,18.37
2022-10-20T16:52:24.521Z,17.00
2022-10-20T16:55:26.189Z,17.93
2022-10-20T16:58:28.325Z,17.13
2022-10-20T17:01:30.128Z,17.30
2022-10-20T17:04:31.978Z,14.70
2022-10-20T17:07:33.666Z,20.70
2022-10-20T17:10:38.018Z,24.03
2022-10-20T17:13:40.577Z,19.00
2022-10-20T17:16:42.416Z,20.13
2022-10-20T17:19:44.857Z,16.23
2022-10-20T17:22:46.544Z,17.83
2022-10-20T17:25:48.817Z,15.97
2022-10-20T17:28:53.038Z,17.53
2022-10-20T17:31:54.691Z,14.47
2022-10-20T17:34:56.337Z,19.23
2022-10-20T17:37:59.884Z,18.83
2022-10-20T17:41:07.152Z,15.53
2022-10-20T17:44:10.032Z,17.03
2022-10-20T17:47:11.708Z,17.03
2022-10-20T17:50:13.368Z,18.37
2022-10-20T17:53:15.050Z,22.17
2022-10-20T17:56:23.121Z,23.33
2022-10-20T17:59:25.420Z,25.53
2022-10-20T18:02:27.085Z,19.37
2022-10-20T18:05:28.763Z,27.00
2022-10-20T18:08:30.424Z,19.00
2022-10-20T18:11:33.905Z,22.60
2022-10-20T18:14:35.858Z,18.13
2022-10-20T18:17:37.512Z,19.00
2022-10-20T18:20:39.174Z,16.60
2022-10-20T18:23:43.580Z,19.60
2022-10-20T18:26:45.759Z,17.07
2022-10-20T18:29:47.427Z,14.07
2022-10-20T18:32:49.055Z,17.90
2022-10-20T18:35:50.736Z,19.07
2022-10-20T18:38:55.716Z,15.90
2022-10-20T18:41:58.028Z,16.60
2022-10-20T18:45:00.039Z,18.60
2022-10-20T18:48:01.696Z,18.50
2022-10-20T18:51:05.316Z,19.70
2022-10-20T18:54:08.981Z,18.17
2022-10-20T18:57:10.625Z,17.77
2022-10-20T19:00:12.885Z,18.87
2022-10-20T19:03:14.521Z,22.23
2022-10-20T19:06:24.710Z,17.13
2022-10-20T19:09:26.387Z,17.07
2022-10-20T19:12:28.027Z,17.03
2022-10-20T19:15:29.669Z,18.57
2022-10-20T19:18:31.348Z,18.03
2022-10-20T19:21:33.737Z,19.97
2022-10-20T19:24:39.662Z,14.03
2022-10-20T19:27:41.368Z,17.67
2022-10-20T19:30:43.037Z,19.87
2022-10-20T19:33:45.930Z,16.73
2022-10-20T19:36:48.857Z,14.40
2022-10-20T19:39:50.564Z,14.30
2022-10-20T19:42:52.251Z,13.60
2022-10-20T19:45:53.927Z,17.60
2022-10-20T19:48:57.231Z,14.00
2022-10-20T19:51:58.981Z,11.90
2022-10-20T19:55:01.209Z,10.77
2022-10-20T19:58:03.245Z,11.20
2022-10-20T20:01:05.996Z,14.27
2022-10-20T20:04:07.829Z,13.93
2022-10-20T20:07:09.577Z,13.70
2022-10-20T20:10:11.380Z,16.17
2022-10-20T20:13:13.024Z,19.40
2022-10-20T20:16:14.695Z,12.43
2022-10-20T20:19:17.254Z,17.33
2022-10-20T20:22:18.915Z,13.77
2022-10-20T20:25:20.613Z,16.20
2022-10-20T20:28:22.251Z,14.33
2022-10-20T20:31:24.599Z,12.77
2022-10-20T20:34:26.296Z,15.27
2022-10-20T20:37:28.022Z,15.93
2022-10-20T20:40:29.708Z,19.73
2022-10-20T20:43:31.846Z,15.60
2022-10-20T20:46:33.994Z,14.70
2022-10-20T20:49:35.689Z,16.37
2022-10-20T20:52:37.343Z,14.40
2022-10-20T20:55:39.005Z,14.87
2022-10-20T20:58:42.020Z,12.43
2022-10-20T21:01:45.042Z,13.73
2022-10-20T21:04:46.693Z,16.07
2022-10-20T21:07:48.308Z,15.20
2022-10-20T21:10:49.969Z,12.30
2022-10-20T21:13:53.939Z,11.57
2022-10-20T21:16:56.104Z,11.13
2022-10-20T21:19:57.739Z,14.27
2022-10-20T21:22:59.365Z,13.00
2022-10-20T21:26:01.017Z,13.37
2022-10-20T21:29:03.249Z,15.37
2022-10-20T21:32:05.091Z,12.70
2022-10-20T21:35:07.056Z,13.50
2022-10-20T21:38:08.702Z,15.13
2022-10-20T21:41:16.017Z,14.57
2022-10-20T21:44:17.784Z,13.73
2022-10-20T21:47:19.463Z,16.13
2022-10-20T21:50:21.165Z,16.90
2022-10-20T21:53:22.799Z,15.07
2022-10-20T21:56:24.866Z,13.97
2022-10-20T21:59:28.964Z,12.77
2022-10-20T22:02:31.125Z,16.60
2022-10-20T22:05:32.774Z,12.70
2022-10-20T22:08:36.236Z,12.20
2022-10-20T22:11:42.235Z,12.23
2022-10-20T22:14:46.489Z,13.03
2022-10-20T22:17:48.968Z,12.20
2022-10-20T22:20:50.738Z,13.30
2022-10-20T22:23:54.557Z,15.93
2022-10-20T22:26:56.289Z,10.90
2022-10-20T22:29:57.949Z,11.67
2022-10-20T22:32:59.965Z,10.27
2022-10-20T22:36:02.377Z,12.63
2022-10-20T22:39:04.571Z,14.60
2022-10-20T22:42:06.368Z,10.73
2022-10-20T22:45:08.942Z,12.13
2022-10-20T22:48:10.604Z,14.17
2022-10-20T22:51:12.787Z,11.33
2022-10-20T22:54:14.429Z,12.37
2022-10-20T22:57:16.116Z,12.53
2022-10-20T23:00:19.440Z,13.77
2022-10-20T23:03:21.088Z,17.07
2022-10-20T23:06:25.723Z,13.60
2022-10-20T23:09:27.789Z,14.77
2022-10-20T23:12:30.147Z,12.10
2022-10-20T23:15:31.803Z,11.53
2022-10-20T23:18:33.913Z,12.83
2022-10-20T23:21:35.587Z,17.17
2022-10-20T23:24:37.237Z,32.67
2022-10-20T23:27:39.390Z,27.17
2022-10-20T23:30:41.226Z,21.83
2022-10-20T23:33:44.380Z,21.17
2022-10-20T23:36:46.031Z,14.47
2022-10-20T23:39:47.682Z,14.10
2022-10-20T23:42:49.319Z,13.77
2022-10-20T23:45:51.061Z,15.13
2022-10-20T23:48:52.751Z,18.57
2022-10-20T23:51:54.437Z,15.93
2022-10-20T23:54:56.179Z,13.13
2022-10-20T23:57:57.822Z,14.97
